createdAt,value
2022-10-19T00:01:17.306Z,50.90
2022-10-19T00:06:25.482Z,51.20
2022-10-19T00:08:54.934Z,51.70
2022-10-19T00:11:23.828Z,51.20
2022-10-19T00:13:51.827Z,51.50
2022-10-19T00:16:21.623Z,51.10
2022-10-19T00:18:49.788Z,51.30
2022-10-19T00:21:19.827Z,51.50
2022-10-19T00:23:49.130Z,51.20
2022-10-19T00:26:17.052Z,50.90
2022-10-19T00:28:45.659Z,51.10
2022-10-19T00:31:16.319Z,50.70
2022-10-19T00:33:47.439Z,50.80
2022-10-19T00:36:20.691Z,50.30
2022-10-19T00:38:48.952Z,49.90
2022-10-19T00:41:18.461Z,50.20
2022-10-19T00:43:55.677Z,50.10
2022-10-19T00:46:23.662Z,49.60
2022-10-19T00:48:56.201Z,49.40
2022-10-19T00:51:29.628Z,49.30
2022-10-19T00:53:58.446Z,49.60
2022-10-19T00:56:26.424Z,49.80
2022-10-19T00:58:54.527Z,49.80
2022-10-19T01:01:25.395Z,49.50
2022-10-19T01:03:54.683Z,50.20
2022-10-19T01:06:25.307Z,50.20
2022-10-19T01:08:53.303Z,50.10
2022-10-19T01:11:32.556Z,50.60
2022-10-19T01:14:14.478Z,51.40
2022-10-19T01:16:51.140Z,50.80
2022-10-19T01:19:54.085Z,51.50
2022-10-19T01:22:34.927Z,51.10
2022-10-19T01:25:13.824Z,51.60
2022-10-19T01:28:14.485Z,51.20
2022-10-19T01:30:52.937Z,51.60
2022-10-19T01:33:32.782Z,52.20
2022-10-19T01:36:10.432Z,52.20
2022-10-19T01:38:45.937Z,53.10
2022-10-19T01:41:17.842Z,53.20
2022-10-19T01:43:52.818Z,52.90
2022-10-19T01:46:28.322Z,53.40
2022-10-19T01:49:01.252Z,52.80
2022-10-19T01:51:33.617Z,52.70
2022-10-19T01:54:07.240Z,52.50
2022-10-19T01:56:36.766Z,52.20
2022-10-19T01:59:07.229Z,52.50
2022-10-19T02:01:39.709Z,52.40
2022-10-19T02:04:08.547Z,52.40
2022-10-19T02:06:36.891Z,52.10
2022-10-19T02:09:05.098Z,52.70
2022-10-19T02:11:34.115Z,52.90
2022-10-19T02:14:06.262Z,52.70
2022-10-19T02:16:41.095Z,52.90
2022-10-19T02:19:11.033Z,53.40
2022-10-19T02:21:39.063Z,53.60
2022-10-19T02:24:07.209Z,53.70
2022-10-19T02:26:36.663Z,54.20
2022-10-19T02:29:05.767Z,53.80
2022-10-19T02:31:33.873Z,54.40
2022-10-19T02:42:51.926Z,54.30
2022-10-19T02:45:24.935Z,54.00
2022-10-19T02:47:56.922Z,53.80
2022-10-19T02:50:25.591Z,53.60
2022-10-19T02:52:53.533Z,53.70
2022-10-19T02:55:21.614Z,54.30
2022-10-19T02:57:50.894Z,54.90
2022-10-19T03:08:57.493Z,54.80
2022-10-19T03:11:25.463Z,54.80
2022-10-19T03:13:54.705Z,55.20
2022-10-19T03:16:22.620Z,55.50
2022-10-19T03:18:50.928Z,55.30
2022-10-19T03:21:19.807Z,54.50
2022-10-19T03:23:47.728Z,54.00
2022-10-19T03:26:17.532Z,54.10
2022-10-19T03:28:45.913Z,53.90
2022-10-19T03:31:15.266Z,53.30
2022-10-19T03:33:45.236Z,53.80
2022-10-19T03:36:18.525Z,53.80
2022-10-19T03:38:46.540Z,53.50
2022-10-19T03:41:14.628Z,53.30
2022-10-19T03:43:42.554Z,53.20
2022-10-19T03:46:10.840Z,53.50
2022-10-19T03:48:40.152Z,54.10
2022-10-19T03:51:10.864Z,54.40
2022-10-19T03:53:40.580Z,54.40
2022-10-19T03:56:11.839Z,54.90
2022-10-19T03:58:41.003Z,54.80
2022-10-19T04:01:12.098Z,54.70
2022-10-19T04:03:41.728Z,54.60
2022-10-19T04:06:12.058Z,54.50
2022-10-19T04:08:40.111Z,53.30
2022-10-19T04:11:10.212Z,52.30
2022-10-19T04:13:38.288Z,52.10
2022-10-19T04:16:06.864Z,52.00
2022-10-19T04:18:35.068Z,52.20
2022-10-19T04:21:06.367Z,53.10
2022-10-19T04:23:36.286Z,53.40
2022-10-19T04:26:06.647Z,53.70
2022-10-19T04:28:35.129Z,53.30
2022-10-19T04:31:03.743Z,54.20
2022-10-19T04:33:31.965Z,56.00
2022-10-19T04:36:00.325Z,55.40
2022-10-19T04:38:30.423Z,56.00
2022-10-19T04:41:03.066Z,56.10
2022-10-19T04:43:31.050Z,57.00
2022-10-19T04:46:02.917Z,58.00
2022-10-19T04:48:30.878Z,57.60
2022-10-19T04:50:58.914Z,57.10
2022-10-19T04:53:26.902Z,56.80
2022-10-19T04:55:56.205Z,56.40
2022-10-19T04:58:24.670Z,56.60
2022-10-19T05:00:53.033Z,55.90
2022-10-19T05:03:21.130Z,56.60
2022-10-19T05:05:49.082Z,57.30
2022-10-19T05:08:17.371Z,57.30
2022-10-19T05:10:47.625Z,55.80
2022-10-19T05:13:17.233Z,55.30
2022-10-19T05:15:45.161Z,54.70
2022-10-19T05:18:13.132Z,53.90
2022-10-19T05:20:41.056Z,53.30
2022-10-19T05:23:09.021Z,53.60
2022-10-19T05:25:36.959Z,53.90
2022-10-19T05:28:04.913Z,53.50
2022-10-19T05:30:34.284Z,53.40
2022-10-19T05:33:02.248Z,53.20
2022-10-19T05:35:30.158Z,53.70
2022-10-19T05:38:00.875Z,54.00
2022-10-19T05:40:28.797Z,55.10
2022-10-19T05:42:56.715Z,54.80
2022-10-19T05:45:24.636Z,54.60
2022-10-19T05:47:53.887Z,53.70
2022-10-19T05:50:21.876Z,53.00
2022-10-19T05:52:49.805Z,52.90
2022-10-19T05:55:17.909Z,52.50
2022-10-19T05:57:45.841Z,51.60
2022-10-19T06:00:14.453Z,51.30
2022-10-19T06:02:42.610Z,51.30
2022-10-19T06:05:11.993Z,51.20
2022-10-19T06:07:39.952Z,51.80
2022-10-19T06:10:09.923Z,52.40
2022-10-19T06:12:38.351Z,52.40
2022-10-19T06:15:06.786Z,51.50
2022-10-19T06:17:35.150Z,50.70
2022-10-19T06:20:03.351Z,51.20
2022-10-19T06:22:32.640Z,51.00
2022-10-19T06:25:00.562Z,51.40
2022-10-19T06:27:29.077Z,51.60
2022-10-19T06:29:59.229Z,51.60
2022-10-19T06:32:28.409Z,51.20
2022-10-19T06:34:56.766Z,51.30
2022-10-19T06:37:24.837Z,51.20
2022-10-19T06:39:54.115Z,50.90
2022-10-19T06:42:22.065Z,51.10
2022-10-19T06:44:50.007Z,51.40
2022-10-19T06:47:17.983Z,51.80
2022-10-19T06:49:46.087Z,51.70
2022-10-19T06:52:14.018Z,50.70
2022-10-19T06:54:42.709Z,51.60
2022-10-19T06:57:12.027Z,52.10
2022-10-19T06:59:40.127Z,50.40
2022-10-19T07:02:08.142Z,50.40
2022-10-19T07:04:36.283Z,51.20
2022-10-19T07:07:04.247Z,51.50
2022-10-19T07:09:32.321Z,51.40
2022-10-19T07:12:00.389Z,51.50
2022-10-19T07:14:29.692Z,51.70
2022-10-19T07:16:57.710Z,52.20
2022-10-19T07:19:27.763Z,52.00
2022-10-19T07:21:55.647Z,52.10
2022-10-19T07:24:24.277Z,52.50
2022-10-19T07:26:52.235Z,54.00
2022-10-19T07:29:20.194Z,53.30
2022-10-19T07:31:58.359Z,54.00
2022-10-19T07:34:28.937Z,54.40
2022-10-19T07:36:59.361Z,53.60
2022-10-19T07:39:28.032Z,53.10
2022-10-19T07:41:55.980Z,52.30
2022-10-19T07:44:27.143Z,51.90
2022-10-19T07:46:58.557Z,51.50
2022-10-19T07:49:26.671Z,52.20
2022-10-19T07:51:56.009Z,52.20
2022-10-19T07:54:24.561Z,52.90
2022-10-19T07:56:52.485Z,53.20
2022-10-19T07:59:20.790Z,53.00
2022-10-19T08:01:48.957Z,52.80
2022-10-19T08:07:07.040Z,52.90
2022-10-19T08:10:03.196Z,53.70
2022-10-19T08:12:22.905Z,53.60
2022-10-19T08:14:50.942Z,53.50
2022-10-19T08:17:18.896Z,52.40
2022-10-19T08:19:48.285Z,52.20
2022-10-19T08:22:16.259Z,52.40
2022-10-19T08:24:44.222Z,52.60
2022-10-19T08:27:12.197Z,51.50
2022-10-19T08:29:40.139Z,51.60
2022-10-19T08:32:08.035Z,51.80
2022-10-19T08:34:38.702Z,52.40
2022-10-19T08:37:19.780Z,51.60
2022-10-19T08:39:56.032Z,49.90
2022-10-19T08:42:29.384Z,50.10
2022-10-19T08:45:17.567Z,50.10
2022-10-19T08:48:08.470Z,49.80
2022-10-19T08:50:39.264Z,49.20
2022-10-19T08:53:13.744Z,49.30
2022-10-19T08:55:53.957Z,49.80
2022-10-19T08:58:38.680Z,50.30
2022-10-19T09:01:10.948Z,50.00
2022-10-19T09:03:55.799Z,50.20
2022-10-19T09:06:30.130Z,50.60
2022-10-19T09:09:00.073Z,51.70
2022-10-19T09:11:30.799Z,50.30
2022-10-19T09:14:07.423Z,49.30
2022-10-19T09:16:35.898Z,50.10
2022-10-19T09:19:04.421Z,49.90
2022-10-19T09:21:44.603Z,50.90
2022-10-19T09:24:29.672Z,51.70
2022-10-19T09:27:02.020Z,50.50
2022-10-19T09:29:37.954Z,51.00
2022-10-19T09:32:16.529Z,50.50
2022-10-19T09:34:48.192Z,49.20
2022-10-19T09:37:23.470Z,48.60
2022-10-19T09:39:55.744Z,48.30
2022-10-19T09:42:29.016Z,48.70
2022-10-19T09:44:59.226Z,49.10
2022-10-19T09:47:36.168Z,48.50
2022-10-19T09:50:15.203Z,49.20
2022-10-19T09:52:44.400Z,48.30
2022-10-19T09:55:25.866Z,46.00
2022-10-19T09:58:01.820Z,44.30
2022-10-19T10:00:38.681Z,45.40
2022-10-19T10:03:07.545Z,44.30
2022-10-19T10:05:38.094Z,46.20
2022-10-19T10:08:13.948Z,46.60
2022-10-19T10:10:47.116Z,45.90
2022-10-19T10:13:18.912Z,47.10
2022-10-19T10:15:52.039Z,46.20
2022-10-19T10:18:20.296Z,47.50
2022-10-19T10:21:03.884Z,46.90
2022-10-19T10:23:36.416Z,45.40
2022-10-19T10:26:13.844Z,45.20
2022-10-19T10:28:48.682Z,42.30
2022-10-19T10:31:20.480Z,43.10
2022-10-19T10:33:55.943Z,42.90
2022-10-19T10:36:27.445Z,43.40
2022-10-19T10:41:45.531Z,42.50
2022-10-19T10:44:20.730Z,42.50
2022-10-19T10:46:53.473Z,41.20
2022-10-19T10:49:25.405Z,42.60
2022-10-19T10:51:56.931Z,42.00
2022-10-19T10:54:27.109Z,41.90
2022-10-19T10:57:06.923Z,40.90
2022-10-19T10:59:43.105Z,40.50
2022-10-19T11:05:00.175Z,42.20
2022-10-19T11:07:31.059Z,42.40
2022-10-19T11:10:02.608Z,43.60
2022-10-19T11:12:38.284Z,43.30
2022-10-19T11:15:17.293Z,44.20
2022-10-19T11:17:56.326Z,44.60
2022-10-19T11:20:30.253Z,45.00
2022-10-19T11:23:14.591Z,45.50
2022-10-19T11:25:52.506Z,45.70
2022-10-19T11:28:34.931Z,45.30
2022-10-19T11:31:10.319Z,45.50
2022-10-19T11:33:49.496Z,44.20
2022-10-19T11:36:35.643Z,43.30
2022-10-19T11:39:20.067Z,43.50
2022-10-19T11:41:56.357Z,44.70
2022-10-19T11:44:43.847Z,44.20
2022-10-19T11:47:34.850Z,44.00
2022-10-19T11:50:19.726Z,44.40
2022-10-19T11:53:00.036Z,43.80
2022-10-19T11:55:38.902Z,43.70
2022-10-19T11:58:21.597Z,44.00
2022-10-19T12:00:57.828Z,44.80
2022-10-19T12:03:50.816Z,44.80
2022-10-19T12:06:25.188Z,44.10
2022-10-19T12:09:13.721Z,43.70
2022-10-19T12:11:53.440Z,43.40
2022-10-19T12:14:25.273Z,42.50
2022-10-19T12:16:58.716Z,43.00
2022-10-19T12:19:29.871Z,43.50
2022-10-19T12:22:03.142Z,43.90
2022-10-19T12:24:34.422Z,44.40
2022-10-19T12:27:03.058Z,44.30
2022-10-19T12:29:34.976Z,44.80
2022-10-19T12:32:06.853Z,45.30
2022-10-19T12:34:41.687Z,44.60
2022-10-19T12:37:18.722Z,44.00
2022-10-19T12:39:54.540Z,44.10
2022-10-19T12:42:28.546Z,43.90
2022-10-19T12:45:09.215Z,44.20
2022-10-19T12:47:41.955Z,44.20
2022-10-19T12:50:09.981Z,44.80
2022-10-19T12:52:44.436Z,45.70
2022-10-19T12:55:24.536Z,45.40
2022-10-19T12:58:01.073Z,45.30
2022-10-19T13:00:32.537Z,46.00
2022-10-19T13:03:06.257Z,46.30
2022-10-19T13:05:35.662Z,46.70
2022-10-19T13:08:07.974Z,47.00
2022-10-19T13:10:40.263Z,46.60
2022-10-19T13:13:46.578Z,45.70
2022-10-19T13:16:56.493Z,45.90
2022-10-19T13:19:26.056Z,45.40
2022-10-19T13:22:29.741Z,46.00
2022-10-19T13:25:23.491Z,45.80
2022-10-19T13:27:55.263Z,45.60
2022-10-19T13:31:06.947Z,46.30
2022-10-19T13:33:52.340Z,46.90
2022-10-19T13:36:22.715Z,46.90
2022-10-19T13:39:08.537Z,46.20
2022-10-19T13:41:51.647Z,46.80
2022-10-19T13:44:28.890Z,47.30
2022-10-19T13:47:21.586Z,47.30
2022-10-19T13:50:11.828Z,47.40
2022-10-19T13:53:06.943Z,46.20
2022-10-19T13:55:54.800Z,46.40
2022-10-19T13:58:54.053Z,46.60
2022-10-19T14:01:33.076Z,46.40
2022-10-19T14:04:18.624Z,46.10
2022-10-19T14:06:52.069Z,46.90
2022-10-19T14:09:34.796Z,46.80
2022-10-19T14:12:08.799Z,46.40
2022-10-19T14:17:20.291Z,46.60
2022-10-19T14:19:50.495Z,46.50
2022-10-19T14:22:21.086Z,45.90
2022-10-19T14:24:50.407Z,45.70
2022-10-19T14:27:22.239Z,46.50
2022-10-19T14:29:52.586Z,45.90
2022-10-19T14:32:24.559Z,46.10
2022-10-19T14:34:53.069Z,46.10
2022-10-19T14:37:24.027Z,45.50
2022-10-19T14:40:06.977Z,46.30
2022-10-19T14:42:46.000Z,46.20
2022-10-19T14:45:18.071Z,46.40
2022-10-19T14:47:54.377Z,45.80
2022-10-19T14:50:25.650Z,45.50
2022-10-19T14:52:59.394Z,46.00
2022-10-19T14:55:35.387Z,45.60
2022-10-19T14:58:10.496Z,45.80
2022-10-19T15:00:38.977Z,46.10
2022-10-19T15:03:09.157Z,46.40
2022-10-19T15:05:41.637Z,46.20
2022-10-19T15:08:11.760Z,47.10
2022-10-19T15:10:45.640Z,47.70
2022-10-19T15:13:23.622Z,47.10
2022-10-19T15:15:53.215Z,46.50
2022-10-19T15:18:43.844Z,46.10
2022-10-19T15:21:16.016Z,46.20
2022-10-19T15:23:45.887Z,46.80
2022-10-19T15:26:21.762Z,47.40
2022-10-19T15:28:50.607Z,48.50
2022-10-19T15:31:20.919Z,49.10
2022-10-19T15:33:51.412Z,49.60
2022-10-19T15:36:21.473Z,48.90
2022-10-19T15:39:11.445Z,49.50
2022-10-19T15:41:49.312Z,49.60
2022-10-19T15:44:33.822Z,49.80
2022-10-19T15:47:22.110Z,50.40
2022-10-19T15:49:55.547Z,50.30
2022-10-19T15:52:25.019Z,49.20
2022-10-19T15:54:54.718Z,49.90
2022-10-19T15:57:27.989Z,50.40
2022-10-19T15:59:56.620Z,50.50
2022-10-19T16:02:26.222Z,50.20
2022-10-19T16:04:54.569Z,49.70
2022-10-19T16:07:27.022Z,49.90
2022-10-19T16:09:55.603Z,50.50
2022-10-19T16:12:26.251Z,49.50
2022-10-19T16:14:54.342Z,50.30
2022-10-19T16:17:22.575Z,51.90
2022-10-19T16:19:50.679Z,52.20
2022-10-19T16:22:18.986Z,51.10
2022-10-19T16:24:46.931Z,51.20
2022-10-19T16:27:16.203Z,50.20
2022-10-19T16:29:45.866Z,49.40
2022-10-19T16:32:13.873Z,49.50
2022-10-19T16:34:42.051Z,50.00
2022-10-19T16:37:12.660Z,49.80
2022-10-19T16:39:40.577Z,49.80
2022-10-19T16:42:08.552Z,49.70
2022-10-19T16:44:36.495Z,49.70
2022-10-19T16:47:06.042Z,49.60
2022-10-19T16:49:34.340Z,49.90
2022-10-19T16:52:02.535Z,50.70
2022-10-19T16:54:30.694Z,51.10
2022-10-19T16:56:58.597Z,50.40
2022-10-19T16:59:26.536Z,49.70
2022-10-19T17:01:54.724Z,49.50
2022-10-19T17:04:24.088Z,49.60
2022-10-19T17:06:51.999Z,48.90
2022-10-19T17:09:41.673Z,49.40
2022-10-19T17:12:09.996Z,49.70
2022-10-19T17:14:39.575Z,49.20
2022-10-19T17:17:17.076Z,49.30
2022-10-19T17:19:46.757Z,48.50
2022-10-19T17:22:14.659Z,49.90
2022-10-19T17:24:42.598Z,48.40
2022-10-19T17:27:10.504Z,48.00
2022-10-19T17:29:38.636Z,48.40
2022-10-19T17:32:06.919Z,48.20
2022-10-19T17:34:34.909Z,47.60
2022-10-19T17:37:04.275Z,46.80
2022-10-19T17:39:32.197Z,47.60
2022-10-19T17:42:01.937Z,49.20
2022-10-19T17:44:31.471Z,49.30
2022-10-19T17:47:00.678Z,49.40
2022-10-19T17:49:29.669Z,50.10
2022-10-19T17:51:57.630Z,49.60
2022-10-19T17:54:26.973Z,50.30
2022-10-19T17:56:55.216Z,49.80
2022-10-19T17:59:34.796Z,49.40
2022-10-19T18:02:04.045Z,49.50
2022-10-19T18:04:32.022Z,49.60
2022-10-19T18:07:00.100Z,49.40
2022-10-19T18:09:29.406Z,49.40
2022-10-19T18:11:57.373Z,49.20
2022-10-19T18:14:25.318Z,49.40
2022-10-19T18:16:53.346Z,49.40
2022-10-19T18:19:21.309Z,49.40
2022-10-19T18:21:49.697Z,48.80
2022-10-19T18:24:20.239Z,49.00
2022-10-19T18:26:50.800Z,49.20
2022-10-19T18:29:20.901Z,49.10
2022-10-19T18:31:51.561Z,48.80
2022-10-19T18:34:21.532Z,48.50
2022-10-19T18:36:50.022Z,48.00
2022-10-19T18:39:18.603Z,47.70
2022-10-19T18:41:48.183Z,47.50
2022-10-19T18:44:20.862Z,47.90
2022-10-19T18:46:51.667Z,47.80
2022-10-19T18:49:19.713Z,48.00
2022-10-19T18:51:52.301Z,48.70
2022-10-19T18:54:23.276Z,48.80
2022-10-19T18:56:51.238Z,48.80
2022-10-19T18:59:21.020Z,49.30
2022-10-19T19:01:49.040Z,49.30
2022-10-19T19:04:16.951Z,49.40
2022-10-19T19:06:44.858Z,49.60
2022-10-19T19:09:13.760Z,49.80
2022-10-19T19:11:42.096Z,50.40
2022-10-19T19:14:14.697Z,49.60
2022-10-19T19:16:46.757Z,50.00
2022-10-19T19:19:16.325Z,50.70
2022-10-19T19:21:45.111Z,50.90
2022-10-19T19:24:15.140Z,50.50
2022-10-19T19:26:46.672Z,50.30
2022-10-19T19:29:14.742Z,50.10
2022-10-19T19:31:42.763Z,50.40
2022-10-19T19:34:12.431Z,50.00
2022-10-19T19:36:46.690Z,49.70
2022-10-19T19:39:15.395Z,49.30
2022-10-19T19:41:43.293Z,48.70
2022-10-19T19:44:11.229Z,48.30
2022-10-19T19:46:39.952Z,48.00
2022-10-19T19:49:07.867Z,48.00
2022-10-19T19:51:37.234Z,48.20
2022-10-19T19:54:06.678Z,48.10
2022-10-19T19:56:34.684Z,49.30
2022-10-19T19:59:04.326Z,49.90
2022-10-19T20:01:33.130Z,50.90
2022-10-19T20:06:40.475Z,51.80
2022-10-19T20:09:10.587Z,52.60
2022-10-19T20:11:42.461Z,52.70
2022-10-19T20:14:13.198Z,54.50
2022-10-19T20:16:41.388Z,53.70
2022-10-19T20:19:11.222Z,53.80
2022-10-19T20:21:43.428Z,54.60
2022-10-19T20:24:11.703Z,55.10
2022-10-19T20:26:39.751Z,55.80
2022-10-19T20:29:07.911Z,56.40
2022-10-19T20:31:39.475Z,55.40
2022-10-19T20:34:10.657Z,53.40
2022-10-19T20:36:38.775Z,52.60
2022-10-19T20:39:08.456Z,51.30
2022-10-19T20:41:38.640Z,50.30
2022-10-19T20:44:06.829Z,48.70
2022-10-19T20:46:37.439Z,48.40
2022-10-19T20:49:09.421Z,47.70
2022-10-19T20:51:40.913Z,47.10
2022-10-19T20:54:13.264Z,46.70
2022-10-19T20:56:42.358Z,46.50
2022-10-19T20:59:15.315Z,46.30
2022-10-19T21:01:44.447Z,46.40
2022-10-19T21:04:14.594Z,46.40
2022-10-19T21:06:44.847Z,46.10
2022-10-19T21:09:15.933Z,45.60
2022-10-19T21:11:45.790Z,45.10
2022-10-19T21:14:15.815Z,45.40
2022-10-19T21:16:43.807Z,45.10
2022-10-19T21:19:14.197Z,44.70
2022-10-19T21:21:44.522Z,44.80
2022-10-19T21:24:15.973Z,45.30
2022-10-19T21:26:45.381Z,45.70
2022-10-19T21:29:15.376Z,46.00
2022-10-19T21:31:47.834Z,47.00
2022-10-19T21:34:19.749Z,47.30
2022-10-19T21:36:48.170Z,47.20
2022-10-19T21:39:17.667Z,47.00
2022-10-19T21:41:46.019Z,47.40
2022-10-19T21:44:14.868Z,47.10
2022-10-19T21:46:43.875Z,47.00
2022-10-19T21:49:12.812Z,46.60
2022-10-19T21:51:45.071Z,46.50
2022-10-19T21:54:15.120Z,46.90
2022-10-19T21:56:45.803Z,46.70
2022-10-19T21:59:16.126Z,46.80
2022-10-19T22:01:44.309Z,46.50
2022-10-19T22:04:14.732Z,46.10
2022-10-19T22:06:44.246Z,45.80
2022-10-19T22:09:18.526Z,45.90
2022-10-19T22:11:47.891Z,46.20
2022-10-19T22:14:17.234Z,46.50
2022-10-19T22:16:45.770Z,46.50
2022-10-19T22:19:14.287Z,46.40
2022-10-19T22:21:42.707Z,46.80
2022-10-19T22:24:13.965Z,46.70
2022-10-19T22:26:44.393Z,46.60
2022-10-19T22:29:14.142Z,46.80
2022-10-19T22:31:42.486Z,46.80
2022-10-19T22:34:12.582Z,46.70
2022-10-19T22:36:40.519Z,46.10
2022-10-19T22:39:09.007Z,46.10
2022-10-19T22:41:39.503Z,46.00
2022-10-19T22:45:02.759Z,45.70
2022-10-19T22:48:44.344Z,45.20
2022-10-19T22:52:26.215Z,44.80
2022-10-19T22:55:14.247Z,44.50
2022-10-19T22:57:42.161Z,44.40
2022-10-19T23:00:11.346Z,44.00
2022-10-19T23:02:39.237Z,43.60
2022-10-19T23:05:07.559Z,43.30
2022-10-19T23:07:37.568Z,42.90
2022-10-19T23:10:06.601Z,43.00
2022-10-19T23:12:35.962Z,42.80
2022-10-19T23:15:03.973Z,42.80
2022-10-19T23:17:31.896Z,42.70
2022-10-19T23:19:59.807Z,42.70
2022-10-19T23:22:27.720Z,43.30
2022-10-19T23:24:55.605Z,43.30
2022-10-19T23:27:23.562Z,43.10
2022-10-19T23:29:52.817Z,43.20
2022-10-19T23:32:20.768Z,43.10
2022-10-19T23:34:48.734Z,43.00
2022-10-19T23:37:16.670Z,42.90
2022-10-19T23:39:44.615Z,42.80
2022-10-19T23:42:12.550Z,42.60
2022-10-19T23:44:40.544Z,42.40
2022-10-19T23:47:09.803Z,42.30
2022-10-19T23:49:37.683Z,42.30
2022-10-19T23:52:05.933Z,42.50
2022-10-19T23:54:33.943Z,42.40
2022-10-19T23:57:01.988Z,42.50
2022-10-19T23:59:29.941Z,42.40
